Time;durP1;ratioP1;P1;durP2;ratioP2;P2;SDS_P1;SDS_P2;PMS_P1;PMS_P2;Temp;Humidity;BMP_temperature;BMP_pressure;BME280_temperature;BME280_humidity;BME280_pressure;Samples;Min_cycle;Max_cycle;Signal;HPM_P1;HPM_P2
2024/01/11 05:05:29;;;;;;;1.20;1.20;;;-4.80;99.90;;;;;;5805586;23;20237;-68
2024/01/11 05:07:55;;;;;;;0.40;0.40;;;-4.80;99.90;;;;;;4901309;29;20218;-65
2024/01/11 05:10:20;;;;;;;0.50;0.50;;;-4.80;99.90;;;;;;4918881;29;20178;-65
2024/01/11 05:12:46;;;;;;;0.50;0.50;;;-4.80;99.90;;;;;;4919057;29;20274;-65
2024/01/11 05:15:11;;;;;;;0.50;0.50;;;-4.80;99.90;;;;;;4898817;29;20730;-64
2024/01/11 05:17:37;;;;;;;0.40;0.40;;;-4.80;99.90;;;;;;4899445;29;20251;-65
2024/01/11 05:20:03;;;;;;;0.40;0.40;;;-4.80;99.90;;;;;;4898975;29;20177;-64
2024/01/11 05:22:29;;;;;;;0.50;0.50;;;-4.80;99.90;;;;;;4899350;29;20182;-65
2024/01/11 05:24:54;;;;;;;0.50;0.50;;;-4.80;99.90;;;;;;4898655;29;20421;-67
2024/01/11 05:27:20;;;;;;;0.40;0.40;;;-4.80;99.90;;;;;;4899358;29;20175;-66
2024/01/11 05:29:45;;;;;;;0.50;0.50;;;-4.80;99.90;;;;;;4899277;29;20202;-65
2024/01/11 05:32:11;;;;;;;0.40;0.40;;;-4.90;99.90;;;;;;4899572;29;20179;-65
2024/01/11 05:34:36;;;;;;;0.53;0.53;;;-4.90;99.90;;;;;;4898798;29;20253;-65
2024/01/11 05:37:02;;;;;;;0.40;0.40;;;-4.90;99.90;;;;;;4881401;29;20197;-65
2024/01/11 05:39:27;;;;;;;0.40;0.40;;;-4.80;99.90;;;;;;4899761;29;20663;-64
2024/01/11 05:41:53;;;;;;;0.70;0.70;;;-4.80;99.90;;;;;;4899282;29;20210;-65
2024/01/11 05:44:18;;;;;;;0.50;0.50;;;-4.80;99.90;;;;;;4899116;29;20599;-66
2024/01/11 05:46:44;;;;;;;0.40;0.40;;;-4.80;99.90;;;;;;4899056;29;20199;-64
2024/01/11 05:49:10;;;;;;;0.30;0.30;;;-4.70;99.90;;;;;;4898943;29;20197;-65
2024/01/11 05:51:36;;;;;;;0.45;0.45;;;-4.70;99.90;;;;;;4899141;29;20491;-64
2024/01/11 05:54:02;;;;;;;0.50;0.50;;;-4.80;99.90;;;;;;4899122;29;20226;-66
2024/01/11 05:56:27;;;;;;;0.40;0.40;;;-4.80;99.90;;;;;;4898768;29;20198;-64
2024/01/11 05:58:53;;;;;;;0.40;0.40;;;-4.70;99.90;;;;;;4898790;29;20445;-65
2024/01/11 06:01:18;;;;;;;0.50;0.50;;;-4.80;99.90;;;;;;4889194;29;20186;-65
2024/01/11 06:03:44;;;;;;;0.50;0.50;;;-4.80;99.90;;;;;;4880362;29;20184;-64
2024/01/11 06:06:10;;;;;;;0.40;0.40;;;-4.80;99.90;;;;;;4879901;29;20231;-64
2024/01/11 06:08:35;;;;;;;0.43;0.43;;;-4.80;99.90;;;;;;4880209;29;20294;-64
2024/01/11 06:11:01;;;;;;;0.40;0.40;;;-4.80;99.90;;;;;;4880252;29;20187;-64
2024/01/11 06:13:27;;;;;;;0.50;0.50;;;-4.80;99.90;;;;;;4880669;29;20191;-65
2024/01/11 06:15:53;;;;;;;0.40;0.40;;;-4.70;99.90;;;;;;4885687;29;20219;-65
2024/01/11 06:18:19;;;;;;;0.70;0.70;;;-4.70;99.90;;;;;;4898076;29;20190;-64
2024/01/11 06:20:44;;;;;;;0.40;0.40;;;-4.70;99.90;;;;;;4883849;29;20176;-66
2024/01/11 06:23:10;;;;;;;0.40;0.40;;;-4.70;99.90;;;;;;4882085;29;20423;-65
2024/01/11 06:25:35;;;;;;;0.40;0.40;;;-4.70;99.90;;;;;;4898278;29;20198;-64
2024/01/11 06:28:03;;;;;;;0.40;0.40;;;-4.80;99.90;;;;;;4898636;29;20194;-63
2024/01/11 06:30:29;;;;;;;0.40;0.40;;;-4.80;99.90;;;;;;4898951;29;20172;-64
2024/01/11 06:32:55;;;;;;;0.53;0.53;;;-4.80;99.90;;;;;;4898135;29;20182;-64
2024/01/11 06:35:20;;;;;;;0.50;0.50;;;-4.80;99.90;;;;;;4897963;29;20490;-67
2024/01/11 06:37:46;;;;;;;0.50;0.50;;;-4.80;99.90;;;;;;4898492;29;20175;-66
2024/01/11 06:40:12;;;;;;;0.40;0.40;;;-4.80;99.90;;;;;;4898363;29;20207;-63
2024/01/11 06:42:37;;;;;;;0.50;0.50;;;-4.80;99.90;;;;;;4898518;29;20175;-64
2024/01/11 06:45:03;;;;;;;0.50;0.50;;;-4.90;99.90;;;;;;4897835;29;20628;-67
2024/01/11 06:47:28;;;;;;;0.70;0.70;;;-4.70;99.90;;;;;;4898327;29;20189;-66
2024/01/11 06:49:54;;;;;;;3.03;2.93;;;-4.70;99.90;;;;;;4898369;29;20415;-64
2024/01/11 06:52:20;;;;;;;0.40;0.40;;;-4.80;99.90;;;;;;4897978;29;20877;-64
2024/01/11 06:54:45;;;;;;;0.50;0.50;;;-4.80;99.90;;;;;;4897387;29;20678;-65
2024/01/11 06:57:11;;;;;;;0.40;0.40;;;-4.80;99.90;;;;;;4891516;29;20535;-67
2024/01/11 06:59:37;;;;;;;0.40;0.40;;;-4.80;99.90;;;;;;4889999;29;20554;-64
2024/01/11 07:02:03;;;;;;;0.50;0.50;;;-4.80;99.90;;;;;;4894593;29;20492;-65
2024/01/11 07:04:29;;;;;;;0.40;0.40;;;-4.80;99.90;;;;;;4897835;29;20193;-65
2024/01/11 07:06:54;;;;;;;4.40;4.20;;;-4.80;99.90;;;;;;4897559;29;20592;-67
2024/01/11 07:09:20;;;;;;;0.40;0.40;;;-4.80;99.90;;;;;;4892176;29;20219;-65
2024/01/11 07:11:46;;;;;;;0.40;0.40;;;-4.90;99.90;;;;;;4879547;29;20176;-64
2024/01/11 07:14:11;;;;;;;0.40;0.40;;;-4.80;99.90;;;;;;4879268;29;20168;-66
2024/01/11 07:16:37;;;;;;;0.40;0.40;;;-4.90;99.90;;;;;;4878913;29;20279;-65
2024/01/11 07:19:03;;;;;;;0.40;0.40;;;-4.90;99.90;;;;;;4892901;29;20190;-66
2024/01/11 07:21:32;;;;;;;0.53;0.53;;;-4.90;99.90;;;;;;4881993;29;20207;-66
2024/01/11 07:24:00;;;;;;;1.52;1.50;;;-4.80;99.90;;;;;;4879493;29;20415;-64
2024/01/11 07:26:27;;;;;;;0.40;0.40;;;-4.80;99.90;;;;;;4896401;29;20286;-63
2024/01/11 07:28:56;;;;;;;0.50;0.50;;;-4.80;99.90;;;;;;4873931;29;20195;-64
2024/01/11 07:31:22;;;;;;;0.40;0.40;;;-4.80;99.90;;;;;;4898858;29;20223;-64
2024/01/11 07:33:47;;;;;;;0.60;0.60;;;-4.80;99.90;;;;;;4901295;29;20197;-63
2024/01/11 07:36:13;;;;;;;0.40;0.40;;;-4.80;99.90;;;;;;4900621;29;20562;-65
2024/01/11 07:38:39;;;;;;;0.50;0.50;;;-4.70;99.90;;;;;;4900770;29;20170;-64
2024/01/11 07:41:04;;;;;;;0.60;0.60;;;-4.70;99.90;;;;;;4900918;29;20407;-67
2024/01/11 07:43:32;;;;;;;0.40;0.40;;;-4.50;99.90;;;;;;4900841;29;20186;-65
2024/01/11 07:45:57;;;;;;;0.60;0.60;;;-4.40;99.90;;;;;;4900442;29;20640;-65
2024/01/11 07:48:29;;;;;;;0.50;0.50;;;-4.20;99.90;;;;;;4901056;29;20285;-69
2024/01/11 07:50:55;;;;;;;0.50;0.50;;;-4.00;99.90;;;;;;4900972;29;20176;-66
2024/01/11 07:53:21;;;;;;;0.40;0.40;;;-3.90;99.90;;;;;;4901012;29;20179;-65
2024/01/11 07:55:47;;;;;;;0.50;0.50;;;-3.80;99.90;;;;;;4900540;29;20551;-66
2024/01/11 07:58:14;;;;;;;0.30;0.30;;;-3.60;99.90;;;;;;4900931;29;20180;-66
2024/01/11 08:00:40;;;;;;;0.30;0.30;;;-3.50;99.90;;;;;;4900921;29;20200;-66
2024/01/11 08:03:06;;;;;;;0.50;0.50;;;-3.50;99.90;;;;;;4900933;29;20208;-64
2024/01/11 08:05:31;;;;;;;0.43;0.43;;;-3.40;99.90;;;;;;4900479;29;20557;-65
2024/01/11 08:08:01;;;;;;;0.60;0.60;;;-3.40;99.90;;;;;;4900515;29;20266;-65
2024/01/11 08:10:27;;;;;;;0.50;0.50;;;-3.40;99.90;;;;;;4900636;29;20201;-65
2024/01/11 08:12:52;;;;;;;0.40;0.40;;;-3.40;99.90;;;;;;4900668;29;20202;-65
2024/01/11 08:15:18;;;;;;;0.40;0.40;;;-3.40;99.90;;;;;;4900319;29;20195;-64
2024/01/11 08:17:46;;;;;;;0.40;0.40;;;-3.30;99.90;;;;;;4891114;29;20186;-65
2024/01/11 08:20:12;;;;;;;0.40;0.40;;;-3.20;99.90;;;;;;4882157;29;20177;-65
2024/01/11 08:22:45;;;;;;;0.50;0.50;;;-2.90;99.90;;;;;;4882091;29;20486;-64
2024/01/11 08:25:11;;;;;;;0.30;0.30;;;-2.60;99.90;;;;;;4881356;29;20196;-64
2024/01/11 08:27:37;;;;;;;0.40;0.40;;;-2.30;99.90;;;;;;4881406;29;20205;-65
2024/01/11 08:30:04;;;;;;;0.30;0.30;;;-1.90;99.90;;;;;;4892692;29;20627;-64
2024/01/11 08:32:30;;;;;;;0.30;0.30;;;-1.40;99.90;;;;;;4881855;29;20274;-64
2024/01/11 08:34:57;;;;;;;0.85;0.85;;;-0.90;99.90;;;;;;4887150;29;20174;-64
2024/01/11 08:37:23;;;;;;;0.55;0.55;;;-0.50;99.90;;;;;;4900027;29;20190;-66
2024/01/11 08:39:49;;;;;;;0.30;0.30;;;-0.40;99.90;;;;;;4883227;29;20269;-65
2024/01/11 08:42:15;;;;;;;0.35;0.35;;;-0.50;99.90;;;;;;4887728;29;20184;-65
2024/01/11 08:44:44;;;;;;;0.40;0.40;;;-0.50;99.90;;;;;;4901413;29;20191;-65
2024/01/11 08:47:10;;;;;;;0.30;0.30;;;-0.30;99.90;;;;;;4893384;29;20286;-66
2024/01/11 08:49:39;;;;;;;0.40;0.40;;;0.20;99.90;;;;;;4881475;29;20281;-65
2024/01/11 08:52:05;;;;;;;0.32;0.32;;;0.70;99.90;;;;;;4881475;29;20424;-65
2024/01/11 08:54:34;;;;;;;0.40;0.40;;;1.20;99.90;;;;;;4881046;29;20177;-65
2024/01/11 08:57:01;;;;;;;0.40;0.40;;;1.60;99.90;;;;;;4888673;29;20205;-67
2024/01/11 08:59:26;;;;;;;0.30;0.30;;;1.90;99.90;;;;;;4899776;29;20189;-67
2024/01/11 09:01:52;;;;;;;0.53;0.53;;;2.30;99.90;;;;;;4899838;29;20178;-65
2024/01/11 09:04:18;;;;;;;0.30;0.30;;;2.50;99.90;;;;;;4896876;29;20209;-66
2024/01/11 09:06:45;;;;;;;0.30;0.30;;;2.70;99.90;;;;;;4896618;29;20451;-67
2024/01/11 09:09:13;;;;;;;0.60;0.60;;;3.00;99.90;;;;;;4881377;29;20206;-67
2024/01/11 09:11:39;;;;;;;0.30;0.30;;;3.40;99.30;;;;;;4899277;29;20574;-67
2024/01/11 09:14:06;;;;;;;0.30;0.30;;;3.60;99.10;;;;;;4899484;29;20250;-68
2024/01/11 09:16:32;;;;;;;0.63;0.63;;;3.80;98.40;;;;;;4899689;29;20211;-66
2024/01/11 09:19:00;;;;;;;0.40;0.40;;;4.00;98.40;;;;;;4883064;29;20182;-67
2024/01/11 09:21:26;;;;;;;0.30;0.30;;;4.20;97.80;;;;;;4899772;29;20682;-66
2024/01/11 09:23:51;;;;;;;0.40;0.40;;;4.30;96.40;;;;;;4899562;29;20181;-66
2024/01/11 09:26:17;;;;;;;0.50;0.50;;;4.40;96.00;;;;;;4898924;29;20691;-66
2024/01/11 09:28:43;;;;;;;0.40;0.40;;;4.20;95.30;;;;;;4884373;29;20219;-67
2024/01/11 09:31:08;;;;;;;0.30;0.30;;;4.20;95.70;;;;;;4881069;29;20177;-66
2024/01/11 09:33:34;;;;;;;0.40;0.40;;;4.30;96.00;;;;;;4895126;29;20186;-66
2024/01/11 09:35:59;;;;;;;0.60;0.60;;;4.40;95.50;;;;;;4880301;29;20554;-65
2024/01/11 09:38:25;;;;;;;0.73;0.73;;;4.60;96.00;;;;;;4880643;29;20189;-67
2024/01/11 09:41:10;;;;;;;1.37;1.27;;;4.60;95.10;;;;;;4880628;29;20192;-67
2024/01/11 09:43:36;;;;;;;0.60;0.60;;;4.60;94.70;;;;;;4880743;29;20180;-67
2024/01/11 09:46:06;;;;;;;0.30;0.30;;;4.60;94.80;;;;;;4879936;29;20435;-66
2024/01/11 09:48:35;;;;;;;0.70;0.70;;;4.80;94.70;;;;;;4879626;29;20212;-66
2024/01/11 09:51:05;;;;;;;0.60;0.60;;;4.90;94.40;;;;;;4880348;29;20442;-67
2024/01/11 09:53:34;;;;;;;0.40;0.40;;;4.70;94.60;;;;;;4888599;29;20428;-67
2024/01/11 09:56:00;;;;;;;0.33;0.33;;;4.90;95.00;;;;;;4917522;29;20525;-67
2024/01/11 09:58:26;;;;;;;3.30;1.07;;;5.00;94.50;;;;;;4918026;29;20425;-66
2024/01/11 10:00:58;;;;;;;0.60;0.47;;;5.20;94.40;;;;;;4917960;29;20810;-66
2024/01/11 10:03:24;;;;;;;0.60;0.60;;;5.50;93.90;;;;;;4917697;29;20473;-67
2024/01/11 10:05:56;;;;;;;0.57;0.57;;;5.50;92.80;;;;;;4917386;29;20437;-66
2024/01/11 10:08:21;;;;;;;0.50;0.50;;;5.50;93.60;;;;;;4911986;29;20528;-66
2024/01/11 10:10:48;;;;;;;1.03;0.93;;;5.80;93.70;;;;;;4899172;29;20832;-65
2024/01/11 10:13:14;;;;;;;0.40;0.40;;;6.10;93.60;;;;;;4882074;29;20186;-66
2024/01/11 10:15:39;;;;;;;0.50;0.50;;;6.40;92.20;;;;;;4898775;29;20502;-67
2024/01/11 10:18:05;;;;;;;0.30;0.30;;;6.50;91.90;;;;;;4898736;29;20426;-66
2024/01/11 10:20:32;;;;;;;0.30;0.30;;;6.60;92.60;;;;;;4898794;29;20375;-66
2024/01/11 10:22:59;;;;;;;0.30;0.30;;;6.80;92.50;;;;;;4897028;29;20499;-67
2024/01/11 10:25:25;;;;;;;0.70;0.70;;;7.00;91.30;;;;;;4898207;29;20434;-66
2024/01/11 10:27:51;;;;;;;1.30;0.83;;;6.90;90.90;;;;;;4898724;29;20459;-67
2024/01/11 10:30:17;;;;;;;0.30;0.30;;;6.80;91.20;;;;;;4881776;29;20437;-67
2024/01/11 10:32:47;;;;;;;0.50;0.50;;;6.80;91.20;;;;;;4898430;29;20896;-67
2024/01/11 10:35:13;;;;;;;0.70;0.70;;;6.70;90.90;;;;;;4898193;29;20201;-67
2024/01/11 10:37:40;;;;;;;0.40;0.40;;;6.70;90.80;;;;;;4888497;29;20723;-67
2024/01/11 10:40:10;;;;;;;0.60;0.60;;;6.70;90.80;;;;;;4879829;29;20796;-67
2024/01/11 10:42:42;;;;;;;0.40;0.40;;;6.80;91.00;;;;;;4879670;29;20982;-69
2024/01/11 10:45:14;;;;;;;1.27;1.27;;;6.50;90.20;;;;;;4879353;29;20518;-66
2024/01/11 10:47:53;;;;;;;0.30;0.27;;;6.20;90.60;;;;;;4893843;29;20923;-67
2024/01/11 10:50:19;;;;;;;1.63;1.47;;;6.00;90.50;;;;;;4886046;29;20476;-66
2024/01/11 10:53:03;;;;;;;0.30;0.30;;;5.90;90.90;;;;;;4917183;29;20408;-67
2024/01/11 10:55:32;;;;;;;0.60;0.60;;;5.60;91.00;;;;;;4916684;29;20188;-66
2024/01/11 10:58:00;;;;;;;0.77;0.77;;;5.40;91.80;;;;;;4917107;29;20846;-66
2024/01/11 11:00:30;;;;;;;0.30;0.30;;;5.40;92.10;;;;;;4916833;29;20416;-65
2024/01/11 11:02:57;;;;;;;0.33;0.30;;;5.30;92.10;;;;;;4903871;29;20424;-68
2024/01/11 11:05:25;;;;;;;0.52;0.52;;;5.40;92.20;;;;;;4897602;29;20448;-66
2024/01/11 11:07:51;;;;;;;1.17;1.17;;;5.40;92.40;;;;;;4897690;29;20212;-66
2024/01/11 11:10:19;;;;;;;1.17;1.08;;;5.40;92.70;;;;;;4897726;29;20563;-66
2024/01/11 11:12:46;;;;;;;0.40;0.40;;;5.30;92.70;;;;;;4897869;29;20197;-66
2024/01/11 11:15:13;;;;;;;0.40;0.40;;;5.20;93.00;;;;;;4897245;29;20646;-65
2024/01/11 11:17:40;;;;;;;0.32;0.32;;;5.10;93.30;;;;;;4897646;29;20179;-66
2024/01/11 11:20:13;;;;;;;3.53;1.48;;;4.90;93.30;;;;;;4898213;29;20167;-68
2024/01/11 11:22:40;;;;;;;0.50;0.50;;;4.40;93.30;;;;;;4898047;29;20174;-66
2024/01/11 11:25:10;;;;;;;0.38;0.38;;;3.70;94.10;;;;;;4897399;29;20167;-65
2024/01/11 11:27:36;;;;;;;1.90;1.80;;;3.20;94.90;;;;;;4880682;29;20181;-66
2024/01/11 11:30:04;;;;;;;0.47;0.47;;;2.70;96.10;;;;;;4891773;29;20194;-66
2024/01/11 11:32:37;;;;;;;0.63;0.63;;;2.30;96.70;;;;;;4878982;29;20181;-66
2024/01/11 11:35:04;;;;;;;0.50;0.50;;;2.10;98.30;;;;;;4878449;29;20197;-66
2024/01/11 11:37:31;;;;;;;1.85;1.75;;;2.00;98.40;;;;;;4878827;29;20205;-66
2024/01/11 11:39:58;;;;;;;0.80;0.75;;;1.90;99.10;;;;;;4878790;29;20176;-66
2024/01/11 11:42:24;;;;;;;0.88;0.88;;;1.90;99.10;;;;;;4892923;29;20271;-64
2024/01/11 11:44:51;;;;;;;0.40;0.40;;;1.90;99.70;;;;;;4884507;29;20232;-67
2024/01/11 11:47:22;;;;;;;3.70;1.90;;;1.80;99.90;;;;;;4897098;29;20675;-65
2024/01/11 11:50:11;;;;;;;0.40;0.40;;;1.80;99.90;;;;;;4897600;29;20612;-66
2024/01/11 11:52:39;;;;;;;0.95;0.95;;;1.70;99.90;;;;;;4880461;29;20183;-67
2024/01/11 11:55:07;;;;;;;0.40;0.40;;;1.70;99.90;;;;;;4879908;29;20175;-65
2024/01/11 11:57:34;;;;;;;0.50;0.50;;;1.60;99.90;;;;;;4897072;29;20718;-64
2024/01/11 12:00:04;;;;;;;0.30;0.30;;;1.50;99.90;;;;;;4887678;29;20243;-64
2024/01/11 12:02:30;;;;;;;0.30;0.30;;;1.40;99.90;;;;;;4879154;29;20602;-65
2024/01/11 12:04:56;;;;;;;0.30;0.30;;;1.40;99.90;;;;;;4878550;29;20251;-64
2024/01/11 12:07:23;;;;;;;0.30;0.30;;;1.40;99.90;;;;;;4878638;29;20978;-65
2024/01/11 12:09:49;;;;;;;0.40;0.40;;;1.40;99.90;;;;;;4893097;29;20215;-65
2024/01/11 12:12:15;;;;;;;0.35;0.35;;;1.40;99.90;;;;;;4881169;29;20182;-65
2024/01/11 12:14:42;;;;;;;0.38;0.38;;;1.40;99.90;;;;;;4882362;29;20175;-65
2024/01/11 12:17:08;;;;;;;0.30;0.30;;;1.30;99.90;;;;;;4882173;29;20191;-65
2024/01/11 12:19:33;;;;;;;0.30;0.30;;;1.20;99.90;;;;;;4886896;29;20274;-65
2024/01/11 12:21:59;;;;;;;0.40;0.40;;;1.20;99.90;;;;;;4901128;29;20175;-64
2024/01/11 12:24:26;;;;;;;0.40;0.40;;;1.20;99.90;;;;;;4900500;29;20183;-65
2024/01/11 12:26:53;;;;;;;0.30;0.30;;;1.20;99.90;;;;;;4900565;29;20749;-65
2024/01/11 12:29:19;;;;;;;1.05;1.05;;;1.20;99.90;;;;;;4900950;29;20262;-66
2024/01/11 12:31:45;;;;;;;0.32;0.32;;;1.20;99.90;;;;;;4900982;29;20175;-65
2024/01/11 12:34:12;;;;;;;0.40;0.40;;;1.10;99.90;;;;;;4900135;29;20178;-65
2024/01/11 12:36:38;;;;;;;0.35;0.35;;;1.20;99.90;;;;;;4900752;29;20286;-65
2024/01/11 12:39:06;;;;;;;0.40;0.40;;;1.30;99.90;;;;;;4900813;29;20183;-65
2024/01/11 12:41:32;;;;;;;0.40;0.40;;;1.30;99.90;;;;;;4900718;29;20258;-64
2024/01/11 12:43:58;;;;;;;2.65;1.27;;;1.30;99.90;;;;;;4900604;29;20639;-65
2024/01/11 12:46:24;;;;;;;0.40;0.40;;;1.40;99.90;;;;;;4900207;29;20206;-67
2024/01/11 12:48:50;;;;;;;0.60;0.60;;;1.30;99.90;;;;;;4884758;29;20463;-66
2024/01/11 12:51:19;;;;;;;0.40;0.40;;;1.20;99.90;;;;;;4881784;29;20893;-66
2024/01/11 12:53:48;;;;;;;0.47;0.47;;;1.30;99.90;;;;;;4881724;29;20446;-65
2024/01/11 12:56:15;;;;;;;0.40;0.40;;;1.30;99.90;;;;;;4881110;29;20187;-66
2024/01/11 12:58:42;;;;;;;0.50;0.50;;;1.30;99.90;;;;;;4881789;29;20207;-65
2024/01/11 13:01:08;;;;;;;0.40;0.40;;;1.40;99.90;;;;;;4881732;29;20179;-66
2024/01/11 13:03:39;;;;;;;0.40;0.40;;;1.50;99.90;;;;;;4881358;29;20565;-69
2024/01/11 13:06:05;;;;;;;0.40;0.40;;;1.50;99.90;;;;;;4881053;29;20200;-68
2024/01/11 13:08:31;;;;;;;0.50;0.50;;;1.60;99.90;;;;;;4881144;29;20298;-65
2024/01/11 13:10:57;;;;;;;0.43;0.43;;;1.60;99.90;;;;;;4881332;29;20167;-67
2024/01/11 13:13:23;;;;;;;0.30;0.30;;;1.60;99.90;;;;;;4881358;29;20216;-64
2024/01/11 13:15:48;;;;;;;0.40;0.40;;;1.60;99.90;;;;;;4881065;29;20435;-65
2024/01/11 13:18:15;;;;;;;0.83;0.80;;;1.60;99.90;;;;;;4895946;29;20238;-65
2024/01/11 13:20:40;;;;;;;0.60;0.60;;;1.60;99.90;;;;;;4900055;29;20183;-66
2024/01/11 13:23:14;;;;;;;0.33;0.33;;;1.50;99.90;;;;;;4899974;29;20171;-64
2024/01/11 13:25:41;;;;;;;0.77;0.77;;;1.50;99.90;;;;;;4892467;29;20203;-66
2024/01/11 13:28:06;;;;;;;0.30;0.30;;;1.60;99.90;;;;;;4886907;29;20204;-64
2024/01/11 13:30:32;;;;;;;0.37;0.37;;;1.60;99.90;;;;;;4887915;29;20181;-64
2024/01/11 13:32:59;;;;;;;0.43;0.43;;;1.60;99.90;;;;;;4888651;29;20187;-63
2024/01/11 13:35:24;;;;;;;0.43;0.43;;;1.60;99.90;;;;;;4880424;29;20778;-66
2024/01/11 13:37:50;;;;;;;0.40;0.40;;;1.50;99.90;;;;;;4898365;29;20239;-66
2024/01/11 13:40:16;;;;;;;0.30;0.30;;;1.50;99.90;;;;;;4900045;29;20181;-66
2024/01/11 13:42:43;;;;;;;0.40;0.40;;;1.50;99.90;;;;;;4899247;29;20473;-66
2024/01/11 13:45:09;;;;;;;0.50;0.50;;;1.40;99.90;;;;;;4899011;29;20174;-65
2024/01/11 13:47:35;;;;;;;0.30;0.30;;;1.40;99.90;;;;;;4898796;29;20187;-65
2024/01/11 13:50:01;;;;;;;0.40;0.40;;;1.40;99.90;;;;;;4899865;29;20252;-64
2024/01/11 13:52:27;;;;;;;0.40;0.40;;;1.40;99.90;;;;;;4899348;29;20175;-65
2024/01/11 13:54:52;;;;;;;0.30;0.30;;;1.40;99.90;;;;;;4898808;29;20411;-64
2024/01/11 13:57:18;;;;;;;0.40;0.40;;;1.50;99.90;;;;;;4893975;29;20182;-65
2024/01/11 13:59:43;;;;;;;0.83;0.83;;;1.40;99.90;;;;;;4880720;29;20179;-66
2024/01/11 14:02:09;;;;;;;2.47;1.33;;;1.40;99.90;;;;;;4882393;29;20183;-65
2024/01/11 14:04:35;;;;;;;2.87;1.57;;;1.40;99.90;;;;;;4898870;29;20178;-66
2024/01/11 14:07:03;;;;;;;0.40;0.40;;;1.30;99.90;;;;;;4892411;29;20211;-66
2024/01/11 14:09:29;;;;;;;0.40;0.40;;;1.30;99.90;;;;;;4897636;29;20297;-67
2024/01/11 14:11:54;;;;;;;0.45;0.45;;;1.30;99.90;;;;;;4898313;29;20174;-66
2024/01/11 14:14:20;;;;;;;0.40;0.40;;;1.30;99.90;;;;;;4898718;29;20185;-67
2024/01/11 14:16:47;;;;;;;0.40;0.40;;;1.20;99.90;;;;;;4897513;29;20199;-67
2024/01/11 14:19:13;;;;;;;0.40;0.40;;;1.20;99.90;;;;;;4890933;29;20423;-66
2024/01/11 14:21:38;;;;;;;0.30;0.30;;;1.20;99.90;;;;;;4881634;29;20176;-66
2024/01/11 14:24:05;;;;;;;0.30;0.30;;;1.20;99.90;;;;;;4882578;29;20188;-71
2024/01/11 14:26:33;;;;;;;0.30;0.30;;;1.20;99.90;;;;;;4879759;29;20255;-65
2024/01/11 14:28:59;;;;;;;0.38;0.38;;;1.20;99.90;;;;;;4879615;29;20222;-76
2024/01/11 14:31:25;;;;;;;0.30;0.30;;;1.20;99.90;;;;;;4882274;29;20702;-68
2024/01/11 14:33:50;;;;;;;1.03;1.03;;;1.10;99.90;;;;;;4893519;29;20414;-67
2024/01/11 14:36:16;;;;;;;0.50;0.50;;;1.20;99.90;;;;;;4897860;29;20514;-67
2024/01/11 14:38:44;;;;;;;0.37;0.37;;;1.20;99.90;;;;;;4898342;29;20179;-66
2024/01/11 14:41:10;;;;;;;0.73;0.73;;;1.20;99.90;;;;;;4896663;29;20187;-65
2024/01/11 14:43:36;;;;;;;1.47;1.47;;;1.10;99.90;;;;;;4898274;29;20185;-67
2024/01/11 14:46:02;;;;;;;0.30;0.30;;;1.00;99.90;;;;;;4895516;29;20289;-65
2024/01/11 14:48:30;;;;;;;0.60;0.60;;;1.00;99.90;;;;;;4897680;29;20342;-66
2024/01/11 14:50:56;;;;;;;0.40;0.40;;;1.00;99.90;;;;;;4897226;29;20177;-65
2024/01/11 14:53:22;;;;;;;0.38;0.38;;;1.00;99.90;;;;;;4898391;29;20175;-66
2024/01/11 14:55:48;;;;;;;0.40;0.40;;;1.00;99.90;;;;;;4897843;29;20217;-65
2024/01/11 14:58:14;;;;;;;0.50;0.50;;;0.90;99.90;;;;;;4898287;29;20181;-65
2024/01/11 15:00:41;;;;;;;0.50;0.50;;;0.80;99.90;;;;;;4897921;29;20195;-65
2024/01/11 15:03:06;;;;;;;0.88;0.88;;;0.80;99.90;;;;;;4898247;29;20205;-64
2024/01/11 15:05:32;;;;;;;0.50;0.50;;;0.70;99.90;;;;;;4897316;29;20226;-65
2024/01/11 15:07:57;;;;;;;0.40;0.40;;;0.70;99.90;;;;;;4886099;29;20271;-67
2024/01/11 15:10:23;;;;;;;0.30;0.30;;;0.60;99.90;;;;;;4879530;29;20262;-64
2024/01/11 15:12:49;;;;;;;0.40;0.40;;;0.60;99.90;;;;;;4879613;29;20178;-64
2024/01/11 15:15:14;;;;;;;0.37;0.37;;;0.60;99.90;;;;;;4878947;29;20206;-65
2024/01/11 15:17:40;;;;;;;0.60;0.60;;;0.60;99.90;;;;;;4879465;29;20640;-66
2024/01/11 15:20:06;;;;;;;0.40;0.40;;;0.60;99.90;;;;;;4879102;29;20538;-64
2024/01/11 15:22:32;;;;;;;0.93;0.93;;;0.50;99.90;;;;;;4889619;29;20214;-64
2024/01/11 15:24:58;;;;;;;0.40;0.40;;;0.50;99.90;;;;;;4897541;29;20211;-63
2024/01/11 15:27:23;;;;;;;0.67;0.67;;;0.50;99.90;;;;;;4898483;29;20506;-65
2024/01/11 15:29:52;;;;;;;0.40;0.40;;;0.40;99.90;;;;;;4897978;29;20205;-65
2024/01/11 15:32:17;;;;;;;0.40;0.40;;;0.30;99.90;;;;;;4897983;29;20415;-64
2024/01/11 15:34:43;;;;;;;0.40;0.40;;;0.30;99.90;;;;;;4895000;29;20188;-64
2024/01/11 15:37:09;;;;;;;0.77;0.77;;;0.20;99.90;;;;;;4879110;29;20191;-64
2024/01/11 15:39:35;;;;;;;0.40;0.40;;;0.10;99.90;;;;;;4879536;29;20641;-65
2024/01/11 15:42:02;;;;;;;0.30;0.30;;;0.00;99.90;;;;;;4879355;29;20514;-64
2024/01/11 15:44:28;;;;;;;1.88;1.60;;;0.00;99.90;;;;;;4878862;29;20179;-65
2024/01/11 15:46:55;;;;;;;0.50;0.50;;;-0.10;99.90;;;;;;4880877;29;20198;-64
2024/01/11 15:49:20;;;;;;;0.47;0.47;;;-0.10;99.90;;;;;;4882685;29;20980;-65
2024/01/11 15:51:46;;;;;;;0.40;0.40;;;-0.10;99.90;;;;;;4882788;29;20185;-64
2024/01/11 15:54:12;;;;;;;0.40;0.40;;;-0.10;99.90;;;;;;4882597;29;20416;-72
2024/01/11 15:56:38;;;;;;;0.47;0.47;;;-0.10;99.90;;;;;;4882635;29;20195;-65
2024/01/11 15:59:04;;;;;;;2.30;2.10;;;-0.20;99.90;;;;;;4882610;29;20235;-64
2024/01/11 16:01:29;;;;;;;1.03;0.97;;;-0.20;99.90;;;;;;4882627;29;20175;-65
2024/01/11 16:03:55;;;;;;;0.50;0.50;;;-0.30;99.90;;;;;;4882481;29;20709;-66
2024/01/11 16:06:20;;;;;;;0.97;0.97;;;-0.30;99.90;;;;;;4900668;29;20211;-65
2024/01/11 16:08:49;;;;;;;0.83;0.83;;;-0.30;99.90;;;;;;4901142;29;20214;-65
2024/01/11 16:11:15;;;;;;;0.30;0.30;;;-0.30;99.90;;;;;;4901260;29;20171;-65
2024/01/11 16:13:43;;;;;;;0.40;0.40;;;-0.40;99.90;;;;;;4901327;29;20167;-65
2024/01/11 16:16:09;;;;;;;0.40;0.40;;;-0.40;99.90;;;;;;4900595;29;20222;-65
2024/01/11 16:18:35;;;;;;;0.40;0.40;;;-0.50;99.90;;;;;;4901510;29;20218;-65
2024/01/11 16:21:01;;;;;;;0.50;0.50;;;-0.50;99.90;;;;;;4882193;29;20194;-65
2024/01/11 16:23:26;;;;;;;0.63;0.63;;;-0.50;99.90;;;;;;4882636;29;20179;-65
2024/01/11 16:25:52;;;;;;;0.40;0.40;;;-0.50;99.90;;;;;;4882058;29;20198;-66
2024/01/11 16:28:18;;;;;;;0.40;0.40;;;-0.50;99.90;;;;;;4882007;29;20241;-65
2024/01/11 16:30:45;;;;;;;0.50;0.50;;;-0.50;99.90;;;;;;4882075;29;20184;-65
2024/01/11 16:33:10;;;;;;;0.30;0.30;;;-0.50;99.90;;;;;;4892764;29;20428;-66
2024/01/11 16:35:36;;;;;;;0.30;0.30;;;-0.50;99.90;;;;;;4900306;29;20616;-65
2024/01/11 16:38:03;;;;;;;0.50;0.50;;;-0.50;99.90;;;;;;4900709;29;20179;-65
2024/01/11 16:40:29;;;;;;;0.60;0.60;;;-0.50;99.90;;;;;;4900698;29;20659;-65
2024/01/11 16:42:54;;;;;;;0.40;0.40;;;-0.50;99.90;;;;;;4900777;29;20183;-65
2024/01/11 16:45:20;;;;;;;0.60;0.60;;;-0.50;99.90;;;;;;4900174;29;20480;-65
2024/01/11 16:47:45;;;;;;;0.50;0.50;;;-0.50;99.90;;;;;;4900216;29;20191;-66
2024/01/11 16:50:11;;;;;;;0.40;0.40;;;-0.60;99.90;;;;;;4900592;29;20257;-65
2024/01/11 16:52:37;;;;;;;1.17;1.17;;;-0.60;99.90;;;;;;4900527;29;20224;-65
2024/01/11 16:55:04;;;;;;;0.93;0.93;;;-0.60;99.90;;;;;;4899803;29;20193;-65
2024/01/11 16:57:29;;;;;;;0.40;0.40;;;-0.60;99.90;;;;;;4900068;29;20190;-66
2024/01/11 16:59:55;;;;;;;0.50;0.50;;;-0.70;99.90;;;;;;4883526;29;20555;-65
2024/01/11 17:02:27;;;;;;;1.30;1.30;;;-0.70;99.90;;;;;;4891650;29;20666;-66
2024/01/11 17:04:53;;;;;;;0.70;0.70;;;-0.70;99.90;;;;;;4881115;29;20181;-64
2024/01/11 17:07:18;;;;;;;0.40;0.40;;;-0.70;99.90;;;;;;4881295;29;20198;-66
2024/01/11 17:09:44;;;;;;;0.40;0.40;;;-0.80;99.90;;;;;;4881629;29;20214;-65
2024/01/11 17:12:09;;;;;;;0.43;0.43;;;-0.80;99.90;;;;;;4881338;29;20215;-66
2024/01/11 17:14:35;;;;;;;0.40;0.40;;;-0.80;99.90;;;;;;4880970;29;20187;-66
2024/01/11 17:17:03;;;;;;;0.40;0.40;;;-0.80;99.90;;;;;;4883203;29;20579;-65
2024/01/11 17:19:28;;;;;;;0.40;0.40;;;-0.80;99.90;;;;;;4897873;29;20186;-66
2024/01/11 17:21:54;;;;;;;0.40;0.40;;;-0.80;99.90;;;;;;4899989;29;20559;-66
2024/01/11 17:24:20;;;;;;;0.50;0.50;;;-0.80;99.90;;;;;;4899509;29;20266;-66
2024/01/11 17:26:45;;;;;;;0.40;0.40;;;-0.90;99.90;;;;;;4882756;29;20211;-65
2024/01/11 17:29:11;;;;;;;0.40;0.40;;;-0.90;99.90;;;;;;4900047;29;20612;-66
2024/01/11 17:31:43;;;;;;;0.40;0.40;;;-0.90;99.90;;;;;;4899802;29;20179;-66
2024/01/11 17:34:09;;;;;;;0.40;0.40;;;-0.90;99.90;;;;;;4899118;29;20583;-65
2024/01/11 17:36:34;;;;;;;0.47;0.47;;;-0.90;99.90;;;;;;4899520;29;20190;-66
2024/01/11 17:39:00;;;;;;;0.40;0.40;;;-0.90;99.90;;;;;;4899791;29;20529;-67
2024/01/11 17:41:25;;;;;;;0.47;0.47;;;-0.90;99.90;;;;;;4899512;29;20170;-66
2024/01/11 17:43:52;;;;;;;0.50;0.50;;;-1.00;99.90;;;;;;4899503;29;20233;-65
2024/01/11 17:46:22;;;;;;;1.40;1.40;;;-0.90;99.90;;;;;;4899076;29;20559;-67
2024/01/11 17:48:48;;;;;;;0.90;0.90;;;-1.00;99.90;;;;;;4896457;29;20206;-66
2024/01/11 17:51:14;;;;;;;0.40;0.40;;;-0.90;99.90;;;;;;4880784;29;20524;-67
2024/01/11 17:53:39;;;;;;;0.77;0.77;;;-1.00;99.90;;;;;;4881055;29;20177;-66